sensor_id;sensor_type;location;lat;lon;timestamp;P1;durP1;ratioP1;P2;durP2;ratioP2
12476;SDS011;6303;51.504;6.300;2023-08-21T00:00:17;1.75;;;1.45;;
12476;SDS011;6303;51.504;6.300;2023-08-21T00:02:44;1.45;;;1.30;;
12476;SDS011;6303;51.504;6.300;2023-08-21T00:05:11;1.20;;;1.10;;
12476;SDS011;6303;51.504;6.300;2023-08-21T00:07:38;1.98;;;1.20;;
12476;SDS011;6303;51.504;6.300;2023-08-21T00:10:06;1.45;;;1.35;;
12476;SDS011;6303;51.504;6.300;2023-08-21T00:12:36;1.20;;;1.10;;
12476;SDS011;6303;51.504;6.300;2023-08-21T00:15:03;1.40;;;1.30;;
12476;SDS011;6303;51.504;6.300;2023-08-21T00:17:31;1.48;;;1.20;;
12476;SDS011;6303;51.504;6.300;2023-08-21T00:19:58;1.00;;;1.00;;
12476;SDS011;6303;51.504;6.300;2023-08-21T00:22:27;1.27;;;1.17;;
12476;SDS011;6303;51.504;6.300;2023-08-21T00:24:54;1.27;;;1.10;;
12476;SDS011;6303;51.504;6.300;2023-08-21T00:27:21;1.77;;;1.17;;
12476;SDS011;6303;51.504;6.300;2023-08-21T00:29:49;1.00;;;1.00;;
12476;SDS011;6303;51.504;6.300;2023-08-21T00:32:16;1.00;;;1.00;;
12476;SDS011;6303;51.504;6.300;2023-08-21T00:34:43;1.17;;;1.08;;
12476;SDS011;6303;51.504;6.300;2023-08-21T00:37:10;1.20;;;1.10;;
12476;SDS011;6303;51.504;6.300;2023-08-21T00:39:37;1.30;;;1.10;;
12476;SDS011;6303;51.504;6.300;2023-08-21T00:42:05;1.25;;;1.13;;
12476;SDS011;6303;51.504;6.300;2023-08-21T00:44:32;1.33;;;1.10;;
12476;SDS011;6303;51.504;6.300;2023-08-21T00:47:01;1.60;;;1.13;;
12476;SDS011;6303;51.504;6.300;2023-08-21T00:49:29;1.02;;;1.02;;
12476;SDS011;6303;51.504;6.300;2023-08-21T00:51:56;1.00;;;1.00;;
12476;SDS011;6303;51.504;6.300;2023-08-21T00:54:23;1.30;;;1.20;;
12476;SDS011;6303;51.504;6.300;2023-08-21T00:56:51;1.25;;;1.15;;
12476;SDS011;6303;51.504;6.300;2023-08-21T00:59:18;1.05;;;0.98;;
12476;SDS011;6303;51.504;6.300;2023-08-21T01:01:46;1.33;;;1.23;;
12476;SDS011;6303;51.504;6.300;2023-08-21T01:04:14;1.05;;;1.00;;
12476;SDS011;6303;51.504;6.300;2023-08-21T01:06:42;1.27;;;1.10;;
12476;SDS011;6303;51.504;6.300;2023-08-21T01:09:11;1.35;;;1.20;;
12476;SDS011;6303;51.504;6.300;2023-08-21T01:11:54;1.10;;;1.10;;
12476;SDS011;6303;51.504;6.300;2023-08-21T01:14:31;1.88;;;1.30;;
12476;SDS011;6303;51.504;6.300;2023-08-21T01:17:05;0.95;;;0.93;;
12476;SDS011;6303;51.504;6.300;2023-08-21T01:19:37;1.33;;;1.05;;
12476;SDS011;6303;51.504;6.300;2023-08-21T01:22:07;1.58;;;1.10;;
12476;SDS011;6303;51.504;6.300;2023-08-21T01:24:36;1.10;;;1.00;;
12476;SDS011;6303;51.504;6.300;2023-08-21T01:27:03;1.10;;;1.00;;
12476;SDS011;6303;51.504;6.300;2023-08-21T01:29:30;1.63;;;1.15;;
12476;SDS011;6303;51.504;6.300;2023-08-21T01:31:58;1.92;;;1.02;;
12476;SDS011;6303;51.504;6.300;2023-08-21T01:34:32;1.17;;;1.10;;
12476;SDS011;6303;51.504;6.300;2023-08-21T01:37:01;1.55;;;1.10;;
12476;SDS011;6303;51.504;6.300;2023-08-21T01:39:29;1.10;;;1.00;;
12476;SDS011;6303;51.504;6.300;2023-08-21T01:41:58;1.40;;;1.10;;
12476;SDS011;6303;51.504;6.300;2023-08-21T01:44:25;1.48;;;1.10;;
12476;SDS011;6303;51.504;6.300;2023-08-21T01:46:52;2.00;;;1.10;;
12476;SDS011;6303;51.504;6.300;2023-08-21T01:49:19;1.15;;;1.08;;
12476;SDS011;6303;51.504;6.300;2023-08-21T01:51:46;1.50;;;1.17;;
12476;SDS011;6303;51.504;6.300;2023-08-21T01:54:14;0.95;;;0.90;;
12476;SDS011;6303;51.504;6.300;2023-08-21T01:56:41;1.75;;;1.38;;
12476;SDS011;6303;51.504;6.300;2023-08-21T01:59:09;1.30;;;1.08;;
12476;SDS011;6303;51.504;6.300;2023-08-21T02:01:36;1.30;;;1.10;;
12476;SDS011;6303;51.504;6.300;2023-08-21T02:04:03;2.78;;;1.20;;
12476;SDS011;6303;51.504;6.300;2023-08-21T02:06:30;1.00;;;0.90;;
12476;SDS011;6303;51.504;6.300;2023-08-21T02:08:57;0.77;;;0.77;;
12476;SDS011;6303;51.504;6.300;2023-08-21T02:11:24;1.35;;;1.20;;
12476;SDS011;6303;51.504;6.300;2023-08-21T02:13:52;0.80;;;0.80;;
12476;SDS011;6303;51.504;6.300;2023-08-21T02:16:20;1.23;;;1.13;;
12476;SDS011;6303;51.504;6.300;2023-08-21T02:18:48;1.00;;;0.90;;
12476;SDS011;6303;51.504;6.300;2023-08-21T02:21:15;0.93;;;0.93;;
12476;SDS011;6303;51.504;6.300;2023-08-21T02:23:42;1.00;;;1.00;;
12476;SDS011;6303;51.504;6.300;2023-08-21T02:26:09;1.58;;;1.00;;
12476;SDS011;6303;51.504;6.300;2023-08-21T02:28:38;1.15;;;1.00;;
12476;SDS011;6303;51.504;6.300;2023-08-21T02:31:08;0.93;;;0.90;;
12476;SDS011;6303;51.504;6.300;2023-08-21T02:33:37;0.85;;;0.85;;
12476;SDS011;6303;51.504;6.300;2023-08-21T02:36:04;0.93;;;0.90;;
12476;SDS011;6303;51.504;6.300;2023-08-21T02:38:32;1.33;;;1.00;;
12476;SDS011;6303;51.504;6.300;2023-08-21T02:40:59;1.00;;;0.90;;
12476;SDS011;6303;51.504;6.300;2023-08-21T02:43:26;1.10;;;1.00;;
12476;SDS011;6303;51.504;6.300;2023-08-21T02:45:53;1.08;;;0.98;;
12476;SDS011;6303;51.504;6.300;2023-08-21T02:48:21;1.10;;;1.00;;
12476;SDS011;6303;51.504;6.300;2023-08-21T02:50:49;0.80;;;0.80;;
12476;SDS011;6303;51.504;6.300;2023-08-21T02:53:16;1.00;;;0.90;;
12476;SDS011;6303;51.504;6.300;2023-08-21T02:55:43;0.90;;;0.90;;
12476;SDS011;6303;51.504;6.300;2023-08-21T02:58:12;1.42;;;1.20;;
12476;SDS011;6303;51.504;6.300;2023-08-21T03:00:39;1.05;;;0.90;;
12476;SDS011;6303;51.504;6.300;2023-08-21T03:03:06;1.10;;;1.00;;
12476;SDS011;6303;51.504;6.300;2023-08-21T03:05:33;1.08;;;0.98;;
12476;SDS011;6303;51.504;6.300;2023-08-21T03:08:02;1.85;;;0.90;;
12476;SDS011;6303;51.504;6.300;2023-08-21T03:10:30;1.23;;;1.00;;
12476;SDS011;6303;51.504;6.300;2023-08-21T03:12:59;0.80;;;0.80;;
12476;SDS011;6303;51.504;6.300;2023-08-21T03:15:27;1.13;;;1.00;;
12476;SDS011;6303;51.504;6.300;2023-08-21T03:17:55;1.17;;;0.90;;
12476;SDS011;6303;51.504;6.300;2023-08-21T03:20:22;0.60;;;0.60;;
12476;SDS011;6303;51.504;6.300;2023-08-21T03:22:50;2.33;;;1.05;;
12476;SDS011;6303;51.504;6.300;2023-08-21T03:25:18;1.85;;;1.10;;
12476;SDS011;6303;51.504;6.300;2023-08-21T03:27:45;1.23;;;0.80;;
12476;SDS011;6303;51.504;6.300;2023-08-21T03:30:14;1.20;;;1.10;;
12476;SDS011;6303;51.504;6.300;2023-08-21T03:32:42;1.00;;;0.90;;
12476;SDS011;6303;51.504;6.300;2023-08-21T03:35:10;1.10;;;0.90;;
12476;SDS011;6303;51.504;6.300;2023-08-21T03:37:37;1.48;;;0.85;;
12476;SDS011;6303;51.504;6.300;2023-08-21T03:40:07;1.40;;;1.13;;
12476;SDS011;6303;51.504;6.300;2023-08-21T03:42:36;1.40;;;1.10;;
12476;SDS011;6303;51.504;6.300;2023-08-21T03:45:03;1.00;;;0.90;;
12476;SDS011;6303;51.504;6.300;2023-08-21T03:47:31;1.88;;;1.23;;
12476;SDS011;6303;51.504;6.300;2023-08-21T03:50:03;0.90;;;0.90;;
12476;SDS011;6303;51.504;6.300;2023-08-21T03:52:31;1.45;;;0.95;;
12476;SDS011;6303;51.504;6.300;2023-08-21T03:54:58;1.50;;;1.10;;
12476;SDS011;6303;51.504;6.300;2023-08-21T03:57:27;1.13;;;0.98;;
12476;SDS011;6303;51.504;6.300;2023-08-21T03:59:55;1.30;;;1.20;;
12476;SDS011;6303;51.504;6.300;2023-08-21T04:02:23;1.05;;;0.95;;
12476;SDS011;6303;51.504;6.300;2023-08-21T04:04:50;1.42;;;1.17;;
12476;SDS011;6303;51.504;6.300;2023-08-21T04:07:17;1.30;;;0.90;;
12476;SDS011;6303;51.504;6.300;2023-08-21T04:09:44;2.05;;;0.90;;
12476;SDS011;6303;51.504;6.300;2023-08-21T04:12:12;1.55;;;1.00;;
12476;SDS011;6303;51.504;6.300;2023-08-21T04:14:39;2.58;;;1.20;;
12476;SDS011;6303;51.504;6.300;2023-08-21T04:17:08;2.63;;;1.15;;
12476;SDS011;6303;51.504;6.300;2023-08-21T04:19:36;2.80;;;1.20;;
12476;SDS011;6303;51.504;6.300;2023-08-21T04:22:06;2.92;;;1.17;;
12476;SDS011;6303;51.504;6.300;2023-08-21T04:24:33;2.03;;;1.17;;
12476;SDS011;6303;51.504;6.300;2023-08-21T04:27:00;2.60;;;1.10;;
12476;SDS011;6303;51.504;6.300;2023-08-21T04:29:27;3.10;;;1.10;;
12476;SDS011;6303;51.504;6.300;2023-08-21T04:31:54;2.08;;;1.08;;
12476;SDS011;6303;51.504;6.300;2023-08-21T04:34:23;1.23;;;1.10;;
12476;SDS011;6303;51.504;6.300;2023-08-21T04:36:50;2.40;;;1.20;;
12476;SDS011;6303;51.504;6.300;2023-08-21T04:39:18;2.25;;;1.20;;
12476;SDS011;6303;51.504;6.300;2023-08-21T04:41:46;2.55;;;1.20;;
12476;SDS011;6303;51.504;6.300;2023-08-21T04:44:14;4.03;;;1.20;;
12476;SDS011;6303;51.504;6.300;2023-08-21T04:46:42;2.55;;;1.02;;
12476;SDS011;6303;51.504;6.300;2023-08-21T04:49:10;3.75;;;1.02;;
12476;SDS011;6303;51.504;6.300;2023-08-21T04:51:39;2.88;;;1.10;;
12476;SDS011;6303;51.504;6.300;2023-08-21T04:54:06;2.20;;;1.10;;
12476;SDS011;6303;51.504;6.300;2023-08-21T04:56:33;1.80;;;1.08;;
12476;SDS011;6303;51.504;6.300;2023-08-21T04:59:01;2.72;;;1.90;;
12476;SDS011;6303;51.504;6.300;2023-08-21T05:01:30;5.43;;;2.20;;
12476;SDS011;6303;51.504;6.300;2023-08-21T05:03:58;6.22;;;2.50;;
12476;SDS011;6303;51.504;6.300;2023-08-21T05:06:26;7.85;;;2.85;;
12476;SDS011;6303;51.504;6.300;2023-08-21T05:08:55;9.02;;;3.35;;
12476;SDS011;6303;51.504;6.300;2023-08-21T05:11:22;10.07;;;3.20;;
12476;SDS011;6303;51.504;6.300;2023-08-21T05:13:51;10.82;;;3.83;;
12476;SDS011;6303;51.504;6.300;2023-08-21T05:16:20;9.68;;;3.08;;
12476;SDS011;6303;51.504;6.300;2023-08-21T05:18:47;12.27;;;3.45;;
12476;SDS011;6303;51.504;6.300;2023-08-21T05:21:15;14.98;;;3.92;;
12476;SDS011;6303;51.504;6.300;2023-08-21T05:23:43;9.38;;;3.63;;
12476;SDS011;6303;51.504;6.300;2023-08-21T05:26:11;9.23;;;3.55;;
12476;SDS011;6303;51.504;6.300;2023-08-21T05:28:38;10.07;;;3.65;;
12476;SDS011;6303;51.504;6.300;2023-08-21T05:31:05;12.10;;;3.55;;
12476;SDS011;6303;51.504;6.300;2023-08-21T05:33:49;11.07;;;3.30;;
12476;SDS011;6303;51.504;6.300;2023-08-21T05:36:16;8.48;;;3.42;;
12476;SDS011;6303;51.504;6.300;2023-08-21T05:38:43;10.07;;;3.88;;
12476;SDS011;6303;51.504;6.300;2023-08-21T05:41:12;11.52;;;3.35;;
12476;SDS011;6303;51.504;6.300;2023-08-21T05:43:39;10.73;;;3.13;;
12476;SDS011;6303;51.504;6.300;2023-08-21T05:46:09;6.78;;;2.92;;
12476;SDS011;6303;51.504;6.300;2023-08-21T05:48:37;8.07;;;3.10;;
12476;SDS011;6303;51.504;6.300;2023-08-21T05:51:05;8.32;;;2.85;;
12476;SDS011;6303;51.504;6.300;2023-08-21T05:53:32;9.13;;;2.85;;
12476;SDS011;6303;51.504;6.300;2023-08-21T05:56:00;8.98;;;2.72;;
12476;SDS011;6303;51.504;6.300;2023-08-21T05:58:29;9.00;;;2.80;;
12476;SDS011;6303;51.504;6.300;2023-08-21T06:00:58;4.88;;;2.35;;
12476;SDS011;6303;51.504;6.300;2023-08-21T06:03:25;6.53;;;2.78;;
12476;SDS011;6303;51.504;6.300;2023-08-21T06:06:07;7.05;;;2.70;;
12476;SDS011;6303;51.504;6.300;2023-08-21T06:08:34;5.40;;;2.30;;
12476;SDS011;6303;51.504;6.300;2023-08-21T06:11:01;7.25;;;2.47;;
12476;SDS011;6303;51.504;6.300;2023-08-21T06:13:30;5.53;;;2.50;;
12476;SDS011;6303;51.504;6.300;2023-08-21T06:15:57;6.95;;;2.55;;
12476;SDS011;6303;51.504;6.300;2023-08-21T06:18:25;5.10;;;2.42;;
12476;SDS011;6303;51.504;6.300;2023-08-21T06:20:52;4.28;;;2.20;;
12476;SDS011;6303;51.504;6.300;2023-08-21T06:23:21;4.20;;;1.85;;
12476;SDS011;6303;51.504;6.300;2023-08-21T06:25:49;5.05;;;2.10;;
12476;SDS011;6303;51.504;6.300;2023-08-21T06:28:18;4.78;;;2.28;;
12476;SDS011;6303;51.504;6.300;2023-08-21T06:30:46;4.22;;;2.10;;
12476;SDS011;6303;51.504;6.300;2023-08-21T06:33:14;4.32;;;2.10;;
12476;SDS011;6303;51.504;6.300;2023-08-21T06:35:41;5.72;;;2.00;;
12476;SDS011;6303;51.504;6.300;2023-08-21T06:38:08;5.78;;;2.08;;
12476;SDS011;6303;51.504;6.300;2023-08-21T06:40:35;7.05;;;2.20;;
12476;SDS011;6303;51.504;6.300;2023-08-21T06:43:02;5.18;;;2.10;;
12476;SDS011;6303;51.504;6.300;2023-08-21T06:45:33;5.63;;;2.05;;
12476;SDS011;6303;51.504;6.300;2023-08-21T06:48:04;6.85;;;2.33;;
12476;SDS011;6303;51.504;6.300;2023-08-21T06:50:31;3.75;;;2.08;;
12476;SDS011;6303;51.504;6.300;2023-08-21T06:52:58;5.03;;;2.00;;
12476;SDS011;6303;51.504;6.300;2023-08-21T06:55:25;3.85;;;1.98;;
12476;SDS011;6303;51.504;6.300;2023-08-21T06:57:52;3.80;;;1.85;;
12476;SDS011;6303;51.504;6.300;2023-08-21T07:00:19;4.75;;;1.85;;
12476;SDS011;6303;51.504;6.300;2023-08-21T07:02:46;3.53;;;1.80;;
12476;SDS011;6303;51.504;6.300;2023-08-21T07:05:15;4.57;;;2.00;;
12476;SDS011;6303;51.504;6.300;2023-08-21T07:07:42;5.30;;;2.05;;
12476;SDS011;6303;51.504;6.300;2023-08-21T07:10:09;3.95;;;1.88;;
12476;SDS011;6303;51.504;6.300;2023-08-21T07:12:37;3.10;;;1.70;;
12476;SDS011;6303;51.504;6.300;2023-08-21T07:15:04;3.55;;;1.80;;
12476;SDS011;6303;51.504;6.300;2023-08-21T07:17:32;4.57;;;2.20;;
12476;SDS011;6303;51.504;6.300;2023-08-21T07:19:59;3.08;;;1.95;;
12476;SDS011;6303;51.504;6.300;2023-08-21T07:22:27;4.30;;;1.90;;
12476;SDS011;6303;51.504;6.300;2023-08-21T07:24:54;3.65;;;1.85;;
12476;SDS011;6303;51.504;6.300;2023-08-21T07:27:21;2.63;;;1.88;;
12476;SDS011;6303;51.504;6.300;2023-08-21T07:29:48;4.00;;;1.80;;
12476;SDS011;6303;51.504;6.300;2023-08-21T07:32:15;3.30;;;2.03;;
12476;SDS011;6303;51.504;6.300;2023-08-21T07:34:43;4.75;;;1.95;;
12476;SDS011;6303;51.504;6.300;2023-08-21T07:37:10;4.32;;;1.85;;
12476;SDS011;6303;51.504;6.300;2023-08-21T07:39:38;3.15;;;1.70;;
12476;SDS011;6303;51.504;6.300;2023-08-21T07:42:05;3.15;;;1.50;;
12476;SDS011;6303;51.504;6.300;2023-08-21T07:44:35;2.90;;;1.60;;
12476;SDS011;6303;51.504;6.300;2023-08-21T07:47:02;2.65;;;1.75;;
12476;SDS011;6303;51.504;6.300;2023-08-21T07:49:29;3.58;;;1.90;;
12476;SDS011;6303;51.504;6.300;2023-08-21T07:51:57;4.30;;;1.60;;
12476;SDS011;6303;51.504;6.300;2023-08-21T07:54:24;5.20;;;2.10;;
12476;SDS011;6303;51.504;6.300;2023-08-21T07:56:52;2.92;;;1.50;;
12476;SDS011;6303;51.504;6.300;2023-08-21T07:59:19;4.32;;;1.52;;
12476;SDS011;6303;51.504;6.300;2023-08-21T08:01:47;6.18;;;1.92;;
12476;SDS011;6303;51.504;6.300;2023-08-21T08:04:14;2.90;;;1.77;;
12476;SDS011;6303;51.504;6.300;2023-08-21T08:06:41;6.07;;;1.88;;
12476;SDS011;6303;51.504;6.300;2023-08-21T08:09:08;4.55;;;2.20;;
12476;SDS011;6303;51.504;6.300;2023-08-21T08:11:36;3.72;;;1.52;;
12476;SDS011;6303;51.504;6.300;2023-08-21T08:14:04;2.67;;;1.60;;
12476;SDS011;6303;51.504;6.300;2023-08-21T08:16:31;2.03;;;1.40;;
12476;SDS011;6303;51.504;6.300;2023-08-21T08:18:58;2.97;;;1.58;;
12476;SDS011;6303;51.504;6.300;2023-08-21T08:21:25;3.58;;;1.45;;
12476;SDS011;6303;51.504;6.300;2023-08-21T08:23:52;3.55;;;1.33;;
12476;SDS011;6303;51.504;6.300;2023-08-21T08:26:19;3.38;;;1.50;;
12476;SDS011;6303;51.504;6.300;2023-08-21T08:28:46;5.18;;;1.80;;
12476;SDS011;6303;51.504;6.300;2023-08-21T08:31:15;4.60;;;1.65;;
12476;SDS011;6303;51.504;6.300;2023-08-21T08:33:43;3.95;;;1.67;;
12476;SDS011;6303;51.504;6.300;2023-08-21T08:36:10;3.72;;;1.48;;
12476;SDS011;6303;51.504;6.300;2023-08-21T08:38:37;4.47;;;1.60;;
12476;SDS011;6303;51.504;6.300;2023-08-21T08:41:05;4.05;;;1.55;;
12476;SDS011;6303;51.504;6.300;2023-08-21T08:43:38;4.88;;;1.60;;
12476;SDS011;6303;51.504;6.300;2023-08-21T08:46:06;2.47;;;1.23;;
12476;SDS011;6303;51.504;6.300;2023-08-21T08:48:36;4.15;;;1.50;;
12476;SDS011;6303;51.504;6.300;2023-08-21T08:51:04;4.55;;;1.50;;
12476;SDS011;6303;51.504;6.300;2023-08-21T08:53:31;3.85;;;1.52;;
12476;SDS011;6303;51.504;6.300;2023-08-21T08:55:58;3.78;;;1.42;;
12476;SDS011;6303;51.504;6.300;2023-08-21T08:58:26;5.10;;;1.50;;
12476;SDS011;6303;51.504;6.300;2023-08-21T09:00:53;3.67;;;1.67;;
12476;SDS011;6303;51.504;6.300;2023-08-21T09:03:20;3.08;;;1.42;;
12476;SDS011;6303;51.504;6.300;2023-08-21T09:05:48;2.97;;;1.30;;
12476;SDS011;6303;51.504;6.300;2023-08-21T09:08:15;4.45;;;1.80;;
12476;SDS011;6303;51.504;6.300;2023-08-21T09:10:42;3.88;;;1.45;;
12476;SDS011;6303;51.504;6.300;2023-08-21T09:13:14;4.50;;;1.85;;
12476;SDS011;6303;51.504;6.300;2023-08-21T09:15:42;2.88;;;1.45;;
12476;SDS011;6303;51.504;6.300;2023-08-21T09:18:10;4.72;;;1.80;;
12476;SDS011;6303;51.504;6.300;2023-08-21T09:20:37;5.28;;;1.60;;
12476;SDS011;6303;51.504;6.300;2023-08-21T09:23:06;2.40;;;1.30;;
12476;SDS011;6303;51.504;6.300;2023-08-21T09:25:34;3.47;;;1.35;;
12476;SDS011;6303;51.504;6.300;2023-08-21T09:28:03;3.72;;;1.50;;
12476;SDS011;6303;51.504;6.300;2023-08-21T09:30:43;3.72;;;1.30;;
12476;SDS011;6303;51.504;6.300;2023-08-21T09:33:11;4.30;;;1.48;;
12476;SDS011;6303;51.504;6.300;2023-08-21T09:35:38;4.40;;;1.63;;
12476;SDS011;6303;51.504;6.300;2023-08-21T09:38:08;4.55;;;1.40;;
12476;SDS011;6303;51.504;6.300;2023-08-21T09:40:38;2.45;;;1.20;;
12476;SDS011;6303;51.504;6.300;2023-08-21T09:43:07;3.38;;;1.40;;
12476;SDS011;6303;51.504;6.300;2023-08-21T09:45:36;3.55;;;1.38;;
12476;SDS011;6303;51.504;6.300;2023-08-21T09:48:03;3.00;;;1.20;;
12476;SDS011;6303;51.504;6.300;2023-08-21T09:50:31;2.35;;;1.40;;
12476;SDS011;6303;51.504;6.300;2023-08-21T09:52:58;3.42;;;1.23;;
12476;SDS011;6303;51.504;6.300;2023-08-21T09:55:26;4.97;;;1.50;;
12476;SDS011;6303;51.504;6.300;2023-08-21T09:57:57;2.80;;;1.30;;
12476;SDS011;6303;51.504;6.300;2023-08-21T10:00:26;3.15;;;1.33;;
12476;SDS011;6303;51.504;6.300;2023-08-21T10:02:57;3.03;;;1.40;;
12476;SDS011;6303;51.504;6.300;2023-08-21T10:05:28;2.05;;;1.25;;
12476;SDS011;6303;51.504;6.300;2023-08-21T10:07:56;3.05;;;1.20;;
12476;SDS011;6303;51.504;6.300;2023-08-21T10:10:29;4.20;;;1.50;;
12476;SDS011;6303;51.504;6.300;2023-08-21T10:12:58;3.15;;;1.38;;
12476;SDS011;6303;51.504;6.300;2023-08-21T10:15:26;2.28;;;1.30;;
12476;SDS011;6303;51.504;6.300;2023-08-21T10:17:55;2.45;;;1.42;;
12476;SDS011;6303;51.504;6.300;2023-08-21T10:20:25;3.08;;;1.50;;
12476;SDS011;6303;51.504;6.300;2023-08-21T10:22:53;5.90;;;1.55;;
12476;SDS011;6303;51.504;6.300;2023-08-21T10:25:21;2.92;;;1.48;;
12476;SDS011;6303;51.504;6.300;2023-08-21T10:27:53;6.65;;;2.10;;
12476;SDS011;6303;51.504;6.300;2023-08-21T10:30:22;8.75;;;1.80;;
12476;SDS011;6303;51.504;6.300;2023-08-21T10:32:52;4.60;;;1.30;;
12476;SDS011;6303;51.504;6.300;2023-08-21T10:35:21;4.18;;;1.40;;
12476;SDS011;6303;51.504;6.300;2023-08-21T10:38:08;4.13;;;1.35;;
12476;SDS011;6303;51.504;6.300;2023-08-21T10:40:37;3.70;;;1.42;;
12476;SDS011;6303;51.504;6.300;2023-08-21T10:43:15;5.82;;;1.40;;
12476;SDS011;6303;51.504;6.300;2023-08-21T10:46:02;3.55;;;1.55;;
12476;SDS011;6303;51.504;6.300;2023-08-21T10:48:30;2.75;;;1.40;;
12476;SDS011;6303;51.504;6.300;2023-08-21T10:50:57;3.80;;;1.40;;
12476;SDS011;6303;51.504;6.300;2023-08-21T10:53:25;4.68;;;1.77;;
12476;SDS011;6303;51.504;6.300;2023-08-21T10:55:53;4.05;;;1.35;;
12476;SDS011;6303;51.504;6.300;2023-08-21T10:58:20;2.25;;;1.23;;
12476;SDS011;6303;51.504;6.300;2023-08-21T11:00:51;3.08;;;1.40;;
12476;SDS011;6303;51.504;6.300;2023-08-21T11:03:24;2.88;;;1.40;;
12476;SDS011;6303;51.504;6.300;2023-08-21T11:06:01;4.90;;;1.60;;
12476;SDS011;6303;51.504;6.300;2023-08-21T11:08:29;3.03;;;1.40;;
12476;SDS011;6303;51.504;6.300;2023-08-21T11:10:57;2.92;;;1.65;;
12476;SDS011;6303;51.504;6.300;2023-08-21T11:13:25;3.78;;;1.40;;
12476;SDS011;6303;51.504;6.300;2023-08-21T11:15:58;2.17;;;1.40;;
12476;SDS011;6303;51.504;6.300;2023-08-21T11:18:31;4.25;;;1.40;;
12476;SDS011;6303;51.504;6.300;2023-08-21T11:21:08;5.35;;;1.45;;
12476;SDS011;6303;51.504;6.300;2023-08-21T11:23:36;3.55;;;1.42;;
12476;SDS011;6303;51.504;6.300;2023-08-21T11:26:04;2.92;;;1.50;;
12476;SDS011;6303;51.504;6.300;2023-08-21T11:28:32;4.47;;;1.50;;
12476;SDS011;6303;51.504;6.300;2023-08-21T11:30:59;3.65;;;1.40;;
12476;SDS011;6303;51.504;6.300;2023-08-21T11:33:26;2.88;;;1.30;;
12476;SDS011;6303;51.504;6.300;2023-08-21T11:35:56;4.22;;;1.60;;
12476;SDS011;6303;51.504;6.300;2023-08-21T11:38:24;2.88;;;1.35;;
12476;SDS011;6303;51.504;6.300;2023-08-21T11:40:53;3.33;;;1.38;;
12476;SDS011;6303;51.504;6.300;2023-08-21T11:43:21;4.32;;;1.50;;
12476;SDS011;6303;51.504;6.300;2023-08-21T11:45:49;5.18;;;1.70;;
12476;SDS011;6303;51.504;6.300;2023-08-21T11:48:19;4.45;;;1.52;;
12476;SDS011;6303;51.504;6.300;2023-08-21T11:50:47;3.00;;;1.50;;
12476;SDS011;6303;51.504;6.300;2023-08-21T11:53:17;6.85;;;1.88;;
12476;SDS011;6303;51.504;6.300;2023-08-21T11:56:01;5.45;;;1.90;;
12476;SDS011;6303;51.504;6.300;2023-08-21T11:58:28;3.60;;;1.60;;
12476;SDS011;6303;51.504;6.300;2023-08-21T12:01:01;5.68;;;1.30;;
12476;SDS011;6303;51.504;6.300;2023-08-21T12:03:29;3.08;;;1.40;;
12476;SDS011;6303;51.504;6.300;2023-08-21T12:05:57;3.55;;;1.88;;
12476;SDS011;6303;51.504;6.300;2023-08-21T12:08:26;2.85;;;1.73;;
12476;SDS011;6303;51.504;6.300;2023-08-21T12:10:53;4.55;;;1.80;;
12476;SDS011;6303;51.504;6.300;2023-08-21T12:13:20;3.88;;;1.60;;
12476;SDS011;6303;51.504;6.300;2023-08-21T12:15:47;4.13;;;1.70;;
12476;SDS011;6303;51.504;6.300;2023-08-21T12:18:14;2.90;;;1.50;;
12476;SDS011;6303;51.504;6.300;2023-08-21T12:20:41;3.53;;;1.50;;
12476;SDS011;6303;51.504;6.300;2023-08-21T12:23:08;2.53;;;1.38;;
12476;SDS011;6303;51.504;6.300;2023-08-21T12:25:37;4.07;;;1.60;;
12476;SDS011;6303;51.504;6.300;2023-08-21T12:28:05;4.70;;;1.67;;
12476;SDS011;6303;51.504;6.300;2023-08-21T12:30:32;2.85;;;1.48;;
12476;SDS011;6303;51.504;6.300;2023-08-21T12:33:00;5.88;;;1.65;;
12476;SDS011;6303;51.504;6.300;2023-08-21T12:35:27;4.57;;;1.75;;
12476;SDS011;6303;51.504;6.300;2023-08-21T12:37:56;5.60;;;1.83;;
12476;SDS011;6303;51.504;6.300;2023-08-21T12:40:24;3.28;;;1.73;;
12476;SDS011;6303;51.504;6.300;2023-08-21T12:42:52;2.33;;;1.40;;
12476;SDS011;6303;51.504;6.300;2023-08-21T12:45:19;4.50;;;1.92;;
12476;SDS011;6303;51.504;6.300;2023-08-21T12:47:46;3.42;;;1.90;;
12476;SDS011;6303;51.504;6.300;2023-08-21T12:50:14;3.03;;;1.67;;
12476;SDS011;6303;51.504;6.300;2023-08-21T12:52:41;3.08;;;1.63;;
12476;SDS011;6303;51.504;6.300;2023-08-21T12:55:08;3.40;;;1.70;;
12476;SDS011;6303;51.504;6.300;2023-08-21T12:57:35;2.08;;;1.63;;
12476;SDS011;6303;51.504;6.300;2023-08-21T13:00:04;3.13;;;1.73;;
12476;SDS011;6303;51.504;6.300;2023-08-21T13:02:32;3.17;;;1.77;;
12476;SDS011;6303;51.504;6.300;2023-08-21T13:04:59;2.72;;;1.83;;
12476;SDS011;6303;51.504;6.300;2023-08-21T13:07:26;3.47;;;1.70;;
12476;SDS011;6303;51.504;6.300;2023-08-21T13:09:54;5.88;;;1.80;;
12476;SDS011;6303;51.504;6.300;2023-08-21T13:12:21;3.55;;;1.85;;
12476;SDS011;6303;51.504;6.300;2023-08-21T13:14:48;3.35;;;1.70;;
12476;SDS011;6303;51.504;6.300;2023-08-21T13:17:16;3.45;;;1.70;;
12476;SDS011;6303;51.504;6.300;2023-08-21T13:19:43;4.65;;;1.70;;
12476;SDS011;6303;51.504;6.300;2023-08-21T13:22:10;3.92;;;1.90;;
12476;SDS011;6303;51.504;6.300;2023-08-21T13:24:37;3.97;;;1.80;;
12476;SDS011;6303;51.504;6.300;2023-08-21T13:27:05;4.22;;;1.73;;
12476;SDS011;6303;51.504;6.300;2023-08-21T13:29:32;3.63;;;1.60;;
12476;SDS011;6303;51.504;6.300;2023-08-21T13:31:59;3.60;;;1.75;;
12476;SDS011;6303;51.504;6.300;2023-08-21T13:34:27;3.72;;;1.85;;
12476;SDS011;6303;51.504;6.300;2023-08-21T13:36:54;3.78;;;1.85;;
12476;SDS011;6303;51.504;6.300;2023-08-21T13:39:21;3.67;;;1.92;;
12476;SDS011;6303;51.504;6.300;2023-08-21T13:41:48;4.05;;;1.90;;
12476;SDS011;6303;51.504;6.300;2023-08-21T13:44:15;4.03;;;2.00;;
12476;SDS011;6303;51.504;6.300;2023-08-21T13:46:42;3.85;;;1.90;;
12476;SDS011;6303;51.504;6.300;2023-08-21T13:49:09;5.20;;;2.20;;
12476;SDS011;6303;51.504;6.300;2023-08-21T13:51:38;2.58;;;2.15;;
12476;SDS011;6303;51.504;6.300;2023-08-21T13:54:05;5.28;;;2.15;;
12476;SDS011;6303;51.504;6.300;2023-08-21T13:56:32;4.75;;;2.20;;
12476;SDS011;6303;51.504;6.300;2023-08-21T13:58:59;3.47;;;2.22;;
12476;SDS011;6303;51.504;6.300;2023-08-21T14:01:26;3.83;;;2.42;;
12476;SDS011;6303;51.504;6.300;2023-08-21T14:03:53;4.00;;;2.50;;
12476;SDS011;6303;51.504;6.300;2023-08-21T14:06:20;3.80;;;2.10;;
12476;SDS011;6303;51.504;6.300;2023-08-21T14:08:48;3.80;;;2.33;;
12476;SDS011;6303;51.504;6.300;2023-08-21T14:11:16;3.25;;;2.13;;
12476;SDS011;6303;51.504;6.300;2023-08-21T14:13:43;5.65;;;2.10;;
12476;SDS011;6303;51.504;6.300;2023-08-21T14:16:10;3.08;;;1.90;;
12476;SDS011;6303;51.504;6.300;2023-08-21T14:18:38;3.42;;;2.10;;
12476;SDS011;6303;51.504;6.300;2023-08-21T14:21:05;3.90;;;2.10;;
12476;SDS011;6303;51.504;6.300;2023-08-21T14:23:32;4.45;;;1.83;;
12476;SDS011;6303;51.504;6.300;2023-08-21T14:26:00;3.78;;;2.05;;
12476;SDS011;6303;51.504;6.300;2023-08-21T14:28:27;3.75;;;2.03;;
12476;SDS011;6303;51.504;6.300;2023-08-21T14:30:54;3.13;;;1.80;;
12476;SDS011;6303;51.504;6.300;2023-08-21T14:33:22;3.63;;;2.15;;
12476;SDS011;6303;51.504;6.300;2023-08-21T14:35:49;4.95;;;2.08;;
12476;SDS011;6303;51.504;6.300;2023-08-21T14:38:16;2.55;;;1.85;;
12476;SDS011;6303;51.504;6.300;2023-08-21T14:40:43;4.18;;;2.05;;
12476;SDS011;6303;51.504;6.300;2023-08-21T14:43:12;2.65;;;1.80;;
12476;SDS011;6303;51.504;6.300;2023-08-21T14:45:39;4.20;;;2.38;;
12476;SDS011;6303;51.504;6.300;2023-08-21T14:48:06;3.60;;;1.88;;
12476;SDS011;6303;51.504;6.300;2023-08-21T14:50:33;3.17;;;2.55;;
12476;SDS011;6303;51.504;6.300;2023-08-21T14:53:00;3.03;;;2.15;;
12476;SDS011;6303;51.504;6.300;2023-08-21T14:55:27;2.97;;;2.25;;
12476;SDS011;6303;51.504;6.300;2023-08-21T14:57:54;4.28;;;2.58;;
12476;SDS011;6303;51.504;6.300;2023-08-21T15:00:23;3.85;;;2.50;;
12476;SDS011;6303;51.504;6.300;2023-08-21T15:02:50;3.42;;;2.17;;
12476;SDS011;6303;51.504;6.300;2023-08-21T15:05:17;5.32;;;2.70;;